Time;durP1;ratioP1;P1;durP2;ratioP2;P2;SDS_P1;SDS_P2;PMS_P1;PMS_P2;Temp;Humidity;BMP_temperature;BMP_pressure;BME280_temperature;BME280_humidity;BME280_pressure;Samples;Min_cycle;Max_cycle;Signal;HPM_P1;HPM_P2
2022/01/13 00:01:12;;;;;;;28.93;17.23;;;-3.30;99.90;;;;;;4995486;28;20229;-43
2022/01/13 00:03:39;;;;;;;30.23;18.17;;;-3.30;99.90;;;;;;5011620;28;20211;-43
2022/01/13 00:06:04;;;;;;;32.33;17.90;;;-3.30;99.90;;;;;;4995553;28;20652;-42
2022/01/13 00:08:30;;;;;;;29.63;18.23;;;-3.30;99.90;;;;;;4995011;28;20258;-43
2022/01/13 00:10:56;;;;;;;28.17;17.83;;;-3.40;99.90;;;;;;5012904;28;20258;-42
2022/01/13 00:13:30;;;;;;;31.20;18.83;;;-3.40;99.90;;;;;;4995634;28;20186;-43
2022/01/13 00:19:03;;;;;;;31.80;18.50;;;-3.50;99.90;;;;;;5003077;28;20200;-43
2022/01/13 00:21:34;;;;;;;31.07;17.50;;;-3.50;99.90;;;;;;4995143;28;20190;-43
2022/01/13 00:24:02;;;;;;;39.53;19.83;;;-3.50;99.90;;;;;;5011525;28;20210;-43
2022/01/13 00:26:30;;;;;;;34.13;20.40;;;-3.40;99.90;;;;;;4995001;28;20202;-42
2022/01/13 00:28:57;;;;;;;35.97;18.50;;;-3.40;99.90;;;;;;4994733;28;20282;-43
2022/01/13 00:31:28;;;;;;;32.27;18.80;;;-3.40;99.90;;;;;;4994746;28;20179;-42
2022/01/13 00:34:00;;;;;;;32.73;18.17;;;-3.40;99.90;;;;;;4995057;28;20198;-43
2022/01/13 00:36:28;;;;;;;30.87;18.27;;;-3.40;99.90;;;;;;4994893;28;20179;-42
2022/01/13 00:38:55;;;;;;;30.30;17.77;;;-3.50;99.90;;;;;;4995007;28;20197;-42
2022/01/13 00:41:23;;;;;;;33.47;17.70;;;-3.50;99.90;;;;;;4995032;28;20198;-43
2022/01/13 00:43:49;;;;;;;30.07;17.50;;;-3.50;99.90;;;;;;5027571;28;20215;-42
2022/01/13 00:46:21;;;;;;;31.03;18.10;;;-3.50;99.90;;;;;;5004279;28;20205;-43
2022/01/13 00:48:48;;;;;;;29.07;17.30;;;-3.50;99.90;;;;;;5030813;28;20285;-42
2022/01/13 00:51:14;;;;;;;32.83;19.57;;;-3.50;99.90;;;;;;5014604;28;20187;-42
2022/01/13 00:53:41;;;;;;;30.30;18.63;;;-3.50;99.90;;;;;;5032180;28;20202;-43
2022/01/13 00:56:06;;;;;;;30.67;17.57;;;-3.50;99.90;;;;;;5030771;28;20193;-42
2022/01/13 00:58:35;;;;;;;34.80;19.27;;;-3.50;99.90;;;;;;5013908;28;20199;-43
2022/01/13 01:01:03;;;;;;;36.53;19.23;;;-3.50;99.90;;;;;;5029817;28;20183;-42
2022/01/13 01:03:29;;;;;;;35.97;19.20;;;-3.50;99.90;;;;;;5030530;28;20210;-43
2022/01/13 01:05:56;;;;;;;36.50;18.13;;;-3.40;99.90;;;;;;5030594;28;20178;-43
2022/01/13 01:08:23;;;;;;;34.60;18.57;;;-3.50;99.90;;;;;;5013945;28;20277;-43
2022/01/13 01:10:50;;;;;;;37.77;18.47;;;-3.50;99.90;;;;;;5030497;28;20175;-42
2022/01/13 01:13:21;;;;;;;35.03;18.07;;;-3.40;99.90;;;;;;5030562;28;20729;-43
2022/01/13 01:15:52;;;;;;;32.97;17.90;;;-3.40;99.90;;;;;;5014033;28;20201;-43
2022/01/13 01:31:38;;;;;;;30.90;16.43;;;-3.70;99.90;;;;;;5030380;28;20232;-42
2022/01/13 01:36:51;;;;;;;31.63;16.17;;;-3.80;99.90;;;;;;5030622;28;20214;-42
2022/01/13 01:39:18;;;;;;;31.90;17.40;;;-3.80;99.90;;;;;;5013736;28;20182;-42
2022/01/13 01:41:46;;;;;;;29.13;17.00;;;-3.90;99.90;;;;;;5030503;28;20544;-42
2022/01/13 01:44:30;;;;;;;27.67;16.47;;;-3.90;99.90;;;;;;5013081;28;20206;-42
2022/01/13 01:46:58;;;;;;;30.03;17.10;;;-3.90;99.90;;;;;;5029896;28;20241;-43
2022/01/13 01:49:25;;;;;;;28.10;17.07;;;-3.90;99.90;;;;;;5029924;28;20167;-42
2022/01/13 01:52:00;;;;;;;33.80;18.13;;;-4.00;99.90;;;;;;5030187;28;20233;-42
2022/01/13 01:54:27;;;;;;;31.77;18.13;;;-4.10;99.90;;;;;;5031404;28;20257;-42
2022/01/13 01:56:54;;;;;;;33.77;18.77;;;-4.10;99.90;;;;;;5029903;28;20206;-42
2022/01/13 01:59:24;;;;;;;30.30;17.70;;;-4.20;99.90;;;;;;5013470;28;20179;-43
2022/01/13 02:01:51;;;;;;;30.37;17.67;;;-4.10;99.90;;;;;;5029977;28;20183;-42
2022/01/13 02:04:18;;;;;;;31.70;17.77;;;-4.00;99.90;;;;;;5013271;28;20203;-42
2022/01/13 02:06:44;;;;;;;33.43;19.03;;;-4.00;99.90;;;;;;5029730;28;20179;-42
2022/01/13 02:09:14;;;;;;;36.03;18.53;;;-4.00;99.90;;;;;;5030540;28;20179;-42
2022/01/13 02:11:45;;;;;;;35.50;19.57;;;-4.00;99.90;;;;;;5014076;28;20182;-43
2022/01/13 02:17:05;;;;;;;33.90;19.17;;;-4.10;99.90;;;;;;5033400;28;20278;-43
2022/01/13 02:19:33;;;;;;;34.67;18.30;;;-4.10;99.90;;;;;;5033661;28;20175;-43
2022/01/13 02:21:59;;;;;;;31.47;18.73;;;-4.00;99.90;;;;;;5016742;28;20186;-41
2022/01/13 02:24:26;;;;;;;31.93;17.90;;;-4.00;99.90;;;;;;5033519;28;20306;-42
2022/01/13 02:26:52;;;;;;;31.23;18.00;;;-3.90;99.90;;;;;;5033446;28;20202;-42
2022/01/13 02:31:53;;;;;;;28.17;16.33;;;-3.90;99.90;;;;;;5050738;28;20208;-37
2022/01/13 02:34:19;;;;;;;27.20;16.00;;;-3.80;99.90;;;;;;5052940;28;20228;-36
2022/01/13 02:36:46;;;;;;;28.33;15.37;;;-3.80;99.90;;;;;;5053133;28;20250;-37
2022/01/13 02:39:12;;;;;;;28.27;15.87;;;-3.90;99.90;;;;;;5036187;28;20206;-36
2022/01/13 02:41:38;;;;;;;27.30;16.27;;;-3.90;99.90;;;;;;5036245;28;20239;-37
2022/01/13 02:44:13;;;;;;;27.00;15.70;;;-3.90;99.90;;;;;;5053034;28;20221;-37
2022/01/13 02:49:08;;;;;;;27.10;15.90;;;-3.90;99.90;;;;;;5052608;28;20206;-37
2022/01/13 02:51:35;;;;;;;33.07;16.53;;;-3.90;99.90;;;;;;5052992;28;20271;-38
2022/01/13 02:54:02;;;;;;;31.77;17.73;;;-3.90;99.90;;;;;;5036232;28;20709;-37
2022/01/13 02:56:28;;;;;;;32.90;17.30;;;-3.90;99.90;;;;;;5036154;28;20233;-38
2022/01/13 02:58:54;;;;;;;32.27;17.83;;;-3.90;99.90;;;;;;5052501;28;20202;-38
2022/01/13 03:01:20;;;;;;;32.93;16.90;;;-3.90;99.90;;;;;;5052620;28;20181;-37
2022/01/13 03:03:46;;;;;;;30.60;16.77;;;-3.90;99.90;;;;;;5052509;28;20210;-37
2022/01/13 03:06:14;;;;;;;30.93;16.83;;;-3.90;99.90;;;;;;5036075;28;20260;-38
2022/01/13 03:08:46;;;;;;;26.43;15.77;;;-4.00;99.90;;;;;;5035838;28;20246;-37
2022/01/13 03:11:13;;;;;;;28.60;16.27;;;-4.00;99.90;;;;;;5052714;28;20359;-36
2022/01/13 03:13:39;;;;;;;25.77;15.43;;;-4.00;99.90;;;;;;5035532;28;20186;-37
2022/01/13 03:16:13;;;;;;;28.07;16.83;;;-4.00;99.90;;;;;;5053515;28;20181;-37
2022/01/13 03:18:39;;;;;;;27.83;16.33;;;-4.00;99.90;;;;;;5035620;28;20347;-38
2022/01/13 03:21:06;;;;;;;29.73;15.27;;;-4.10;99.90;;;;;;5035842;28;20232;-37
2022/01/13 03:23:34;;;;;;;28.23;16.33;;;-4.10;99.90;;;;;;5034460;28;20259;-37
2022/01/13 03:26:00;;;;;;;29.90;16.43;;;-4.20;99.90;;;;;;5052118;28;20185;-37
2022/01/13 03:28:39;;;;;;;29.30;16.50;;;-4.20;99.90;;;;;;5051745;28;20198;-36
2022/01/13 03:31:06;;;;;;;33.60;15.90;;;-4.20;99.90;;;;;;5035480;28;20224;-36
2022/01/13 03:33:33;;;;;;;29.63;16.87;;;-4.20;99.90;;;;;;5035707;28;20211;-36
2022/01/13 03:36:02;;;;;;;28.10;16.00;;;-4.20;99.90;;;;;;5052156;28;20177;-38
2022/01/13 03:38:30;;;;;;;25.57;15.67;;;-4.20;99.90;;;;;;5051871;28;20205;-36
2022/01/13 03:40:56;;;;;;;28.63;14.93;;;-4.20;99.90;;;;;;5035249;28;20255;-36
2022/01/13 03:43:22;;;;;;;27.07;15.40;;;-4.20;99.90;;;;;;5035598;28;20351;-37
2022/01/13 03:45:48;;;;;;;26.13;15.20;;;-4.20;99.90;;;;;;5035233;28;20190;-39
2022/01/13 03:48:14;;;;;;;27.83;15.57;;;-4.20;99.90;;;;;;5051587;28;20190;-36
2022/01/13 03:50:41;;;;;;;28.40;16.73;;;-4.20;99.90;;;;;;5035504;28;20185;-38
2022/01/13 03:53:31;;;;;;;27.93;16.50;;;-4.30;99.90;;;;;;5051799;28;20243;-37
2022/01/13 03:56:34;;;;;;;25.50;16.43;;;-4.30;99.90;;;;;;5016704;28;20289;-38
2022/01/13 03:59:27;;;;;;;26.50;15.53;;;-4.20;99.90;;;;;;5034778;28;20208;-38
2022/01/13 04:02:00;;;;;;;28.80;16.17;;;-4.20;99.90;;;;;;5051627;28;20174;-38
2022/01/13 04:04:39;;;;;;;30.43;17.60;;;-4.20;99.90;;;;;;5051707;28;20205;-36
2022/01/13 04:07:09;;;;;;;26.40;15.57;;;-4.20;99.90;;;;;;5034863;28;20188;-36
2022/01/13 04:09:34;;;;;;;28.70;15.33;;;-4.20;99.90;;;;;;5034519;28;20293;-37
2022/01/13 04:12:04;;;;;;;26.40;15.47;;;-4.20;99.90;;;;;;5051506;28;20261;-38
2022/01/13 04:14:39;;;;;;;30.47;15.40;;;-4.10;99.90;;;;;;5034381;28;20181;-37
2022/01/13 04:17:05;;;;;;;24.97;15.40;;;-4.10;99.90;;;;;;5051363;28;20193;-37
2022/01/13 04:19:31;;;;;;;27.07;15.77;;;-4.20;99.90;;;;;;5034675;28;20301;-37
2022/01/13 04:21:57;;;;;;;32.43;16.23;;;-4.20;99.90;;;;;;5034540;28;20336;-38
2022/01/13 04:24:23;;;;;;;26.87;15.37;;;-4.20;99.90;;;;;;5051148;28;20206;-37
2022/01/13 04:26:49;;;;;;;25.67;16.37;;;-4.10;99.90;;;;;;5034320;28;20187;-38
2022/01/13 04:31:44;;;;;;;29.40;16.77;;;-4.10;99.90;;;;;;5049503;28;20190;-38
2022/01/13 04:34:10;;;;;;;24.23;15.50;;;-4.00;99.90;;;;;;5023186;28;20178;-36
2022/01/13 04:36:37;;;;;;;27.97;16.43;;;-4.00;99.90;;;;;;5041474;28;20189;-37
2022/01/13 04:39:04;;;;;;;29.97;16.43;;;-4.00;99.90;;;;;;5035801;28;20214;-36
2022/01/13 04:41:35;;;;;;;29.30;15.63;;;-4.00;99.90;;;;;;5014259;28;20183;-37
2022/01/13 04:44:05;;;;;;;30.07;16.07;;;-4.10;99.90;;;;;;5031150;28;20207;-37
2022/01/13 04:46:32;;;;;;;26.63;15.90;;;-4.20;99.90;;;;;;5024993;28;20185;-38
2022/01/13 04:48:59;;;;;;;30.37;15.73;;;-4.20;99.90;;;;;;5032679;28;20205;-37
2022/01/13 04:51:26;;;;;;;26.73;15.37;;;-4.20;99.90;;;;;;5033067;28;20192;-38
2022/01/13 04:53:52;;;;;;;25.43;16.13;;;-4.20;99.90;;;;;;5049485;28;20323;-38
2022/01/13 04:56:28;;;;;;;27.17;15.77;;;-4.30;99.90;;;;;;5033351;28;20808;-37
2022/01/13 04:58:55;;;;;;;27.70;16.30;;;-4.30;99.90;;;;;;5033295;28;20197;-37
2022/01/13 05:01:22;;;;;;;28.23;16.53;;;-4.20;99.90;;;;;;5050217;28;20182;-38
2022/01/13 05:03:48;;;;;;;28.37;16.33;;;-4.20;99.90;;;;;;5050367;28;20217;-39
2022/01/13 05:06:17;;;;;;;29.00;15.90;;;-4.20;99.90;;;;;;5033295;28;20186;-41
2022/01/13 05:08:44;;;;;;;25.23;15.97;;;-4.30;99.90;;;;;;5049948;28;20308;-39
2022/01/13 05:11:10;;;;;;;30.83;17.57;;;-4.40;99.90;;;;;;5033151;28;20182;-38
2022/01/13 05:13:36;;;;;;;32.80;18.97;;;-4.40;99.90;;;;;;5045520;28;20181;-39
2022/01/13 05:16:01;;;;;;;31.67;17.63;;;-4.40;99.90;;;;;;5040526;28;20178;-38
2022/01/13 05:18:50;;;;;;;248.37;69.73;;;-4.40;99.90;;;;;;5021854;28;20198;-38
2022/01/13 05:21:26;;;;;;;55.83;30.13;;;-4.50;99.90;;;;;;5030183;28;20179;-40
2022/01/13 05:23:53;;;;;;;28.73;16.50;;;-4.50;99.90;;;;;;5030103;28;20206;-38
2022/01/13 05:26:23;;;;;;;34.03;20.33;;;-4.60;99.90;;;;;;5013316;28;20196;-38
2022/01/13 05:28:50;;;;;;;28.43;17.23;;;-4.60;99.90;;;;;;5031111;28;20202;-39
2022/01/13 05:31:16;;;;;;;27.80;15.77;;;-4.60;99.90;;;;;;5029826;28;20186;-38
2022/01/13 05:33:42;;;;;;;29.40;15.83;;;-4.60;99.90;;;;;;5013408;28;20213;-38
2022/01/13 05:36:08;;;;;;;30.63;16.80;;;-4.60;99.90;;;;;;5030021;28;20233;-38
2022/01/13 05:38:34;;;;;;;29.07;16.53;;;-4.60;99.90;;;;;;5013822;28;20202;-38
2022/01/13 05:41:00;;;;;;;28.90;16.30;;;-4.60;99.90;;;;;;5030001;28;20186;-39
2022/01/13 05:43:26;;;;;;;27.03;16.30;;;-4.70;99.90;;;;;;5013365;28;20198;-39
2022/01/13 05:45:53;;;;;;;30.73;17.13;;;-4.70;99.90;;;;;;5019348;28;20317;-39
2022/01/13 05:48:19;;;;;;;26.70;15.40;;;-4.70;99.90;;;;;;5022591;28;20273;-38
2022/01/13 05:50:45;;;;;;;29.07;16.30;;;-4.70;99.90;;;;;;5016223;28;20182;-38
2022/01/13 05:53:11;;;;;;;26.57;15.90;;;-4.70;99.90;;;;;;5018437;28;20178;-41
2022/01/13 05:55:38;;;;;;;28.73;16.67;;;-4.70;99.90;;;;;;5024635;28;20189;-37
2022/01/13 05:58:04;;;;;;;27.90;16.13;;;-4.70;99.90;;;;;;5038225;28;20221;-38
2022/01/13 06:00:30;;;;;;;31.20;16.00;;;-4.70;99.90;;;;;;5030027;28;20158;-37
2022/01/13 06:02:56;;;;;;;29.53;16.10;;;-4.70;99.90;;;;;;5050604;28;20220;-37
2022/01/13 06:05:22;;;;;;;29.50;16.57;;;-4.70;99.90;;;;;;5049475;28;20209;-40
2022/01/13 06:07:48;;;;;;;30.13;16.60;;;-4.60;99.90;;;;;;5032053;28;20285;-38
2022/01/13 06:10:19;;;;;;;31.97;17.10;;;-4.60;99.90;;;;;;5048417;28;20339;-36
2022/01/13 06:12:49;;;;;;;31.07;16.93;;;-4.50;99.90;;;;;;5033012;28;20232;-37
2022/01/13 06:15:21;;;;;;;31.70;16.53;;;-4.50;99.90;;;;;;5049429;28;20182;-37
2022/01/13 06:17:49;;;;;;;29.80;17.03;;;-4.50;99.90;;;;;;5032642;28;20288;-38
2022/01/13 06:20:17;;;;;;;29.60;16.77;;;-4.50;99.90;;;;;;5032915;28;20189;-37
2022/01/13 06:22:44;;;;;;;33.30;18.20;;;-4.50;99.90;;;;;;5032533;28;20182;-37
2022/01/13 06:25:12;;;;;;;32.20;17.97;;;-4.50;99.90;;;;;;5032746;28;20279;-37
2022/01/13 06:27:38;;;;;;;29.93;16.83;;;-4.40;99.90;;;;;;5032400;28;20229;-37
2022/01/13 06:30:09;;;;;;;32.37;17.87;;;-4.40;99.90;;;;;;5032754;28;20186;-37
2022/01/13 06:32:36;;;;;;;35.63;18.27;;;-4.40;99.90;;;;;;5049279;28;20308;-38
2022/01/13 06:35:02;;;;;;;39.23;20.83;;;-4.50;99.90;;;;;;5032557;28;20193;-37
2022/01/13 06:37:28;;;;;;;40.83;22.27;;;-4.50;99.90;;;;;;5032628;28;20190;-36
2022/01/13 06:39:54;;;;;;;38.90;20.80;;;-4.50;99.90;;;;;;5032527;28;20188;-37
2022/01/13 06:42:20;;;;;;;40.40;20.77;;;-4.50;99.90;;;;;;5032409;28;20307;-37
2022/01/13 06:44:46;;;;;;;40.00;21.17;;;-4.50;99.90;;;;;;5049088;28;20284;-37
2022/01/13 06:47:12;;;;;;;41.40;21.03;;;-4.50;99.90;;;;;;5032297;28;20324;-37
2022/01/13 06:49:39;;;;;;;42.63;21.20;;;-4.50;99.90;;;;;;5048882;28;20447;-37
2022/01/13 06:52:06;;;;;;;40.73;21.50;;;-4.50;99.90;;;;;;5050398;28;20691;-36
2022/01/13 06:54:32;;;;;;;44.07;22.20;;;-4.40;99.90;;;;;;5050517;28;20174;-39
2022/01/13 06:56:58;;;;;;;39.30;20.17;;;-4.40;99.90;;;;;;5031709;28;20186;-37
2022/01/13 06:59:23;;;;;;;42.27;21.30;;;-4.40;99.90;;;;;;5034576;28;20312;-37
2022/01/13 07:01:49;;;;;;;42.37;21.17;;;-4.40;99.90;;;;;;5052718;28;20272;-37
2022/01/13 07:04:16;;;;;;;41.50;20.00;;;-4.40;99.90;;;;;;5035960;28;20678;-37
2022/01/13 07:06:44;;;;;;;37.07;20.00;;;-4.40;99.90;;;;;;5052353;28;20216;-37
2022/01/13 07:09:15;;;;;;;35.10;18.53;;;-4.40;99.90;;;;;;5035345;28;20190;-37
2022/01/13 07:11:42;;;;;;;38.10;20.00;;;-4.40;99.90;;;;;;5053560;28;20210;-37
2022/01/13 07:14:08;;;;;;;41.27;19.60;;;-4.50;99.90;;;;;;5035810;28;20213;-37
2022/01/13 07:16:34;;;;;;;35.10;19.53;;;-4.50;99.90;;;;;;5035562;28;20190;-37
2022/01/13 07:19:03;;;;;;;36.93;18.23;;;-4.50;99.90;;;;;;5035248;28;20227;-37
2022/01/13 07:21:29;;;;;;;37.83;19.37;;;-4.50;99.90;;;;;;5052567;28;20257;-37
2022/01/13 07:23:55;;;;;;;38.43;19.73;;;-4.60;99.90;;;;;;5035165;28;20288;-37
2022/01/13 07:26:21;;;;;;;41.77;19.97;;;-4.60;99.90;;;;;;5035312;28;20319;-37
2022/01/13 07:28:47;;;;;;;39.90;19.90;;;-4.60;99.90;;;;;;5035337;28;20204;-38
2022/01/13 07:31:15;;;;;;;40.80;20.00;;;-4.50;99.90;;;;;;5035252;28;20272;-37
2022/01/13 07:33:42;;;;;;;40.30;20.13;;;-4.50;99.90;;;;;;5035459;28;20201;-37
2022/01/13 07:36:08;;;;;;;43.73;20.40;;;-4.50;99.90;;;;;;5052022;28;20684;-37
2022/01/13 07:38:34;;;;;;;39.20;19.43;;;-4.40;99.90;;;;;;5034737;28;20202;-37
2022/01/13 07:41:00;;;;;;;42.63;21.53;;;-4.30;99.90;;;;;;5051937;28;20189;-36
2022/01/13 07:43:26;;;;;;;40.00;20.63;;;-4.30;99.90;;;;;;5035036;28;20198;-37
2022/01/13 07:45:53;;;;;;;42.00;20.87;;;-4.30;99.90;;;;;;5035449;28;20196;-37
2022/01/13 07:48:20;;;;;;;42.17;21.00;;;-4.30;99.90;;;;;;5034870;28;20202;-37
2022/01/13 07:50:48;;;;;;;41.20;20.03;;;-4.30;99.90;;;;;;5051704;28;20181;-36
2022/01/13 07:53:14;;;;;;;44.97;22.87;;;-4.30;99.90;;;;;;5034987;28;20190;-37
2022/01/13 07:55:40;;;;;;;88.77;36.63;;;-4.20;99.90;;;;;;5035279;28;20178;-37
2022/01/13 07:58:06;;;;;;;65.90;31.03;;;-4.20;99.90;;;;;;5052337;28;20196;-37
2022/01/13 08:00:31;;;;;;;48.23;23.80;;;-4.20;99.90;;;;;;5044796;28;20202;-37
2022/01/13 08:02:57;;;;;;;43.53;21.33;;;-4.10;99.90;;;;;;5022087;28;20179;-37
2022/01/13 08:05:23;;;;;;;42.50;21.37;;;-4.10;99.90;;;;;;5024688;28;20171;-37
2022/01/13 08:07:50;;;;;;;43.57;21.33;;;-4.10;99.90;;;;;;5023369;28;20189;-37
2022/01/13 08:10:16;;;;;;;40.63;21.03;;;-4.00;99.90;;;;;;5024993;28;20181;-37
2022/01/13 08:12:43;;;;;;;46.90;22.27;;;-3.90;99.90;;;;;;5041964;28;20170;-39
2022/01/13 08:15:13;;;;;;;46.43;23.50;;;-3.80;99.90;;;;;;5023487;28;20190;-38
2022/01/13 08:20:30;;;;;;;40.00;20.03;;;-3.70;99.90;;;;;;5041205;28;20190;-40
2022/01/13 08:22:57;;;;;;;42.50;20.53;;;-3.60;99.90;;;;;;5040426;28;20171;-42
2022/01/13 08:25:28;;;;;;;37.83;20.33;;;-3.50;99.90;;;;;;5041548;28;20177;-40
2022/01/13 08:27:54;;;;;;;43.57;22.83;;;-3.50;99.90;;;;;;5039340;28;20209;-39
2022/01/13 08:30:25;;;;;;;41.03;21.70;;;-3.40;99.90;;;;;;5042394;28;20201;-40
2022/01/13 08:32:57;;;;;;;42.23;21.97;;;-3.40;99.90;;;;;;5038739;28;20708;-37
2022/01/13 08:35:25;;;;;;;45.87;21.83;;;-3.30;99.90;;;;;;5042116;28;20187;-37
2022/01/13 08:37:51;;;;;;;41.47;20.53;;;-3.20;99.90;;;;;;5044530;28;20194;-37
2022/01/13 08:40:17;;;;;;;41.63;20.53;;;-3.10;99.90;;;;;;5032815;28;20205;-37
2022/01/13 08:42:44;;;;;;;42.17;20.77;;;-3.00;99.90;;;;;;5022863;28;20182;-37
2022/01/13 08:45:12;;;;;;;39.37;20.57;;;-2.90;99.90;;;;;;5040413;28;20202;-39
2022/01/13 08:47:39;;;;;;;45.20;19.87;;;-2.80;99.90;;;;;;5024183;28;20174;-37
2022/01/13 08:50:07;;;;;;;41.23;20.80;;;-2.70;99.90;;;;;;5033460;28;20186;-37
2022/01/13 08:52:37;;;;;;;39.80;21.83;;;-2.60;99.90;;;;;;5029146;28;20239;-38
2022/01/13 08:55:05;;;;;;;38.80;20.73;;;-2.50;99.90;;;;;;5013641;28;20191;-38
2022/01/13 08:57:32;;;;;;;37.70;20.40;;;-2.40;99.90;;;;;;5013528;28;20187;-37
2022/01/13 08:59:58;;;;;;;36.00;20.50;;;-2.40;99.90;;;;;;5030455;28;20178;-37
2022/01/13 09:02:24;;;;;;;39.83;20.57;;;-2.30;99.90;;;;;;5014172;28;20188;-37
2022/01/13 09:04:50;;;;;;;38.87;20.10;;;-2.20;99.90;;;;;;5030506;28;20236;-37
2022/01/13 09:07:16;;;;;;;37.10;21.53;;;-2.20;99.90;;;;;;5030505;28;20174;-37
2022/01/13 09:09:41;;;;;;;36.77;20.27;;;-2.20;99.90;;;;;;5030223;28;20203;-37
2022/01/13 09:12:08;;;;;;;39.77;21.13;;;-2.20;99.90;;;;;;5030124;28;20175;-40
2022/01/13 09:14:34;;;;;;;34.93;20.00;;;-2.20;99.90;;;;;;5031476;28;20179;-37
2022/01/13 09:17:01;;;;;;;38.67;20.37;;;-2.10;99.90;;;;;;5046423;28;20194;-38
2022/01/13 09:19:26;;;;;;;38.00;20.87;;;-2.10;99.90;;;;;;5049937;28;20197;-37
2022/01/13 09:21:52;;;;;;;36.70;20.70;;;-2.00;99.90;;;;;;5032696;28;20244;-41
2022/01/13 09:24:21;;;;;;;36.83;21.60;;;-2.00;99.90;;;;;;5050099;28;20255;-39
2022/01/13 09:26:48;;;;;;;41.63;22.13;;;-2.00;99.90;;;;;;5033106;28;20185;-38
2022/01/13 09:29:14;;;;;;;34.97;21.17;;;-2.00;99.90;;;;;;5033075;28;20193;-38
2022/01/13 09:31:41;;;;;;;36.60;20.83;;;-1.90;99.90;;;;;;5033269;28;20193;-38
2022/01/13 09:34:08;;;;;;;42.77;21.87;;;-1.80;99.90;;;;;;5033343;28;20643;-38
2022/01/13 09:36:35;;;;;;;41.87;22.07;;;-1.70;99.90;;;;;;5050202;28;20201;-40
2022/01/13 09:39:04;;;;;;;40.33;21.20;;;-1.60;99.90;;;;;;5033055;28;20201;-38
2022/01/13 09:41:31;;;;;;;36.73;21.40;;;-1.60;99.90;;;;;;5032986;28;20227;-38
2022/01/13 09:43:58;;;;;;;35.37;21.23;;;-1.60;99.90;;;;;;5033223;28;20228;-39
2022/01/13 09:46:26;;;;;;;37.60;22.10;;;-1.50;99.90;;;;;;5033004;28;20216;-41
2022/01/13 09:48:53;;;;;;;40.83;23.00;;;-1.50;99.90;;;;;;5032952;28;20190;-37
2022/01/13 09:51:22;;;;;;;37.57;20.27;;;-1.40;99.90;;;;;;5033126;28;20215;-37
2022/01/13 09:53:48;;;;;;;37.53;20.90;;;-1.30;99.90;;;;;;5032908;28;20185;-38
2022/01/13 09:56:14;;;;;;;38.40;22.73;;;-1.20;99.90;;;;;;5033152;28;20181;-38
2022/01/13 09:58:43;;;;;;;34.77;19.90;;;-1.10;99.90;;;;;;5032726;28;20297;-37
2022/01/13 10:01:10;;;;;;;40.07;23.33;;;-1.00;99.90;;;;;;5049566;28;20174;-37
2022/01/13 10:03:37;;;;;;;41.00;21.53;;;-0.90;99.90;;;;;;5032997;28;20251;-37
2022/01/13 10:06:12;;;;;;;34.00;21.13;;;-0.80;99.90;;;;;;5049602;28;20638;-37
2022/01/13 10:08:50;;;;;;;35.47;20.90;;;-0.80;99.90;;;;;;5032568;28;20205;-37
2022/01/13 10:11:44;;;;;;;34.23;19.47;;;-0.70;99.90;;;;;;5033101;28;20178;-40
2022/01/13 10:16:52;;;;;;;32.57;18.73;;;-0.60;99.90;;;;;;5049036;28;20190;-38
2022/01/13 10:19:32;;;;;;;37.77;19.17;;;-0.60;99.90;;;;;;5032538;28;20198;-37
2022/01/13 10:22:09;;;;;;;35.17;19.10;;;-0.50;99.90;;;;;;5032844;28;20190;-39
2022/01/13 10:24:43;;;;;;;32.77;18.87;;;-0.50;99.90;;;;;;5049561;28;20205;-37
2022/01/13 10:27:11;;;;;;;37.37;20.23;;;-0.40;99.90;;;;;;5032610;28;20181;-37
2022/01/13 10:29:47;;;;;;;33.13;20.13;;;-0.40;99.90;;;;;;5032451;28;20206;-38
2022/01/13 10:32:17;;;;;;;31.93;18.77;;;-0.40;99.90;;;;;;5025489;28;20182;-37
2022/01/13 10:34:46;;;;;;;32.23;18.47;;;-0.30;99.90;;;;;;5027227;28;20187;-37
2022/01/13 10:37:18;;;;;;;30.43;17.50;;;-0.30;99.90;;;;;;5026274;28;20175;-36
2022/01/13 10:39:58;;;;;;;33.20;18.87;;;-0.20;99.90;;;;;;5026913;28;20196;-40
2022/01/13 10:45:00;;;;;;;33.43;19.30;;;-0.10;99.90;;;;;;5048565;28;20202;-37
2022/01/13 10:47:27;;;;;;;35.30;19.10;;;0.00;99.90;;;;;;5031302;28;20206;-38
2022/01/13 10:50:03;;;;;;;36.93;18.67;;;-0.10;99.90;;;;;;5026859;28;20180;-37
2022/01/13 10:52:30;;;;;;;32.53;19.27;;;0.00;99.90;;;;;;5073867;28;20665;-37
2022/01/13 10:55:09;;;;;;;32.53;18.67;;;0.10;99.90;;;;;;5043485;28;20570;-37
2022/01/13 10:57:38;;;;;;;30.93;17.27;;;0.20;99.90;;;;;;5043473;28;20190;-39
2022/01/13 11:00:17;;;;;;;33.00;18.80;;;0.30;99.90;;;;;;5025586;28;20190;-36
2022/01/13 11:02:47;;;;;;;33.77;19.67;;;0.40;99.90;;;;;;5048619;28;20179;-37
2022/01/13 11:05:13;;;;;;;30.47;18.33;;;0.50;99.90;;;;;;5043452;28;20291;-38
2022/01/13 11:07:41;;;;;;;30.50;17.93;;;0.40;99.90;;;;;;5040242;28;20260;-38
2022/01/13 11:10:08;;;;;;;30.67;18.33;;;0.50;99.90;;;;;;5026224;28;20207;-42
2022/01/13 11:12:42;;;;;;;30.30;18.40;;;0.50;99.90;;;;;;5024786;28;20203;-41
2022/01/13 11:15:14;;;;;;;31.03;18.17;;;0.50;99.90;;;;;;5049683;28;20187;-38
2022/01/13 11:17:43;;;;;;;34.53;19.40;;;0.60;99.90;;;;;;5041156;28;20189;-39
2022/01/13 11:20:11;;;;;;;33.60;19.67;;;0.60;99.90;;;;;;5025167;28;20248;-41
2022/01/13 11:22:42;;;;;;;36.40;20.50;;;0.70;99.90;;;;;;5026447;28;20210;-39
2022/01/13 11:25:10;;;;;;;34.03;19.37;;;0.70;99.90;;;;;;5025546;28;20739;-37
2022/01/13 11:27:38;;;;;;;32.87;18.80;;;0.70;99.90;;;;;;5023689;28;20277;-36
2022/01/13 11:30:08;;;;;;;33.97;19.90;;;0.80;99.90;;;;;;5025747;28;20188;-38
2022/01/13 11:32:35;;;;;;;31.97;18.43;;;0.90;99.90;;;;;;5026164;28;20214;-39
2022/01/13 11:35:02;;;;;;;30.50;17.97;;;0.90;99.90;;;;;;5033810;28;20255;-39
2022/01/13 11:37:30;;;;;;;35.33;20.37;;;1.00;99.90;;;;;;5032428;28;20187;-36
2022/01/13 11:39:58;;;;;;;31.20;19.10;;;1.00;99.90;;;;;;5015586;28;20189;-38
2022/01/13 11:42:24;;;;;;;32.77;19.30;;;1.10;99.90;;;;;;5013889;28;20257;-36
2022/01/13 11:45:14;;;;;;;30.50;18.83;;;1.20;99.90;;;;;;5014210;28;20213;-37
2022/01/13 11:47:41;;;;;;;30.80;18.43;;;1.30;99.90;;;;;;5013036;28;20190;-36
2022/01/13 11:50:30;;;;;;;32.13;19.90;;;1.40;99.90;;;;;;5015127;28;20201;-36
2022/01/13 11:52:58;;;;;;;29.63;18.80;;;1.40;99.90;;;;;;5031792;28;20181;-36
2022/01/13 11:55:35;;;;;;;37.07;20.60;;;1.50;99.90;;;;;;5015505;28;20186;-35
2022/01/13 11:58:22;;;;;;;29.87;18.93;;;1.50;99.90;;;;;;5014924;28;20237;-35
2022/01/13 12:00:51;;;;;;;31.33;18.90;;;1.50;99.90;;;;;;5015533;28;20193;-36
2022/01/13 12:03:33;;;;;;;31.87;19.00;;;1.50;99.90;;;;;;5015207;28;20275;-36
2022/01/13 12:06:02;;;;;;;28.70;18.53;;;1.60;99.90;;;;;;5015240;28;20185;-36
2022/01/13 12:08:40;;;;;;;29.73;17.43;;;1.70;99.90;;;;;;5031551;28;20197;-35
2022/01/13 12:11:08;;;;;;;29.47;17.63;;;1.70;99.90;;;;;;5031964;28;20181;-35
2022/01/13 12:13:40;;;;;;;27.50;17.23;;;1.90;99.90;;;;;;5014885;28;20186;-35
2022/01/13 12:16:08;;;;;;;33.00;20.27;;;2.00;99.90;;;;;;5023945;28;20237;-36
2022/01/13 12:19:00;;;;;;;29.70;17.97;;;2.10;99.90;;;;;;5034731;28;20230;-37
2022/01/13 12:21:32;;;;;;;31.00;19.60;;;2.30;99.90;;;;;;5034921;28;20222;-38
2022/01/13 12:23:59;;;;;;;29.10;18.00;;;2.30;99.90;;;;;;5051101;28;20210;-36
2022/01/13 12:26:37;;;;;;;27.53;17.10;;;2.20;99.90;;;;;;5034358;28;20189;-36
2022/01/13 12:29:22;;;;;;;30.30;18.33;;;2.20;99.90;;;;;;5028279;28;20557;-37
2022/01/13 12:31:58;;;;;;;29.23;18.57;;;2.20;99.90;;;;;;5050621;28;20189;-37
2022/01/13 12:34:33;;;;;;;28.20;17.90;;;2.20;99.90;;;;;;5050797;28;20255;-37
2022/01/13 12:37:14;;;;;;;29.47;18.40;;;2.30;99.90;;;;;;5034626;28;20189;-37
2022/01/13 12:39:43;;;;;;;31.90;16.97;;;2.40;99.90;;;;;;5050597;28;20229;-37
2022/01/13 12:42:17;;;;;;;30.33;18.10;;;2.60;99.90;;;;;;5034391;28;20628;-38
2022/01/13 12:47:28;;;;;;;33.00;18.03;;;2.70;99.90;;;;;;5050376;28;20182;-38
2022/01/13 12:49:54;;;;;;;27.00;17.97;;;2.80;99.90;;;;;;5050474;28;20208;-37
2022/01/13 12:52:27;;;;;;;30.43;18.93;;;2.80;99.90;;;;;;5050836;28;20181;-37
2022/01/13 12:54:55;;;;;;;28.67;18.57;;;2.90;99.90;;;;;;5034180;28;20189;-37
2022/01/13 12:57:24;;;;;;;30.10;18.70;;;2.90;99.90;;;;;;5033579;28;20217;-38
2022/01/13 12:59:58;;;;;;;35.53;19.37;;;2.90;99.90;;;;;;5051463;28;20184;-37
2022/01/13 13:02:24;;;;;;;27.10;17.87;;;3.00;99.90;;;;;;5053069;28;20181;-36
2022/01/13 13:04:50;;;;;;;30.20;17.30;;;3.10;99.90;;;;;;5053433;28;20209;-36
2022/01/13 13:07:16;;;;;;;28.00;17.83;;;3.10;99.90;;;;;;5035688;28;20170;-36
2022/01/13 13:09:42;;;;;;;28.60;18.70;;;3.10;99.90;;;;;;5035460;28;20198;-35
2022/01/13 13:12:13;;;;;;;24.17;16.87;;;3.00;99.90;;;;;;5052067;28;20178;-36
2022/01/13 13:17:29;;;;;;;32.50;19.20;;;3.10;99.90;;;;;;5052081;28;20178;-36
2022/01/13 13:19:55;;;;;;;30.63;18.57;;;3.10;99.90;;;;;;5049995;28;20192;-36